sensor_id;sensor_type;location;lat;lon;timestamp;pressure;altitude;pressure_sealevel;temperature;humidity
9009;BME280;62813;51.424;6.762;2023-11-21T00:01:23;100772.34;;;8.75;86.57
9009;BME280;62813;51.424;6.762;2023-11-21T00:03:50;100762.31;;;8.72;86.25
9009;BME280;62813;51.424;6.762;2023-11-21T00:06:17;100764.47;;;8.75;87.15
9009;BME280;62813;51.424;6.762;2023-11-21T00:08:44;100763.16;;;8.78;87.04
9009;BME280;62813;51.424;6.762;2023-11-21T00:11:11;100763.47;;;8.81;87.42
9009;BME280;62813;51.424;6.762;2023-11-21T00:13:38;100770.84;;;8.84;87.14
9009;BME280;62813;51.424;6.762;2023-11-21T00:16:06;100766.63;;;8.83;86.89
9009;BME280;62813;51.424;6.762;2023-11-21T00:18:34;100761.06;;;8.80;87.71
9009;BME280;62813;51.424;6.762;2023-11-21T00:21:00;100776.59;;;8.81;88.25
9009;BME280;62813;51.424;6.762;2023-11-21T00:23:27;100782.09;;;8.80;88.35
9009;BME280;62813;51.424;6.762;2023-11-21T00:25:56;100778.13;;;8.77;88.69
9009;BME280;62813;51.424;6.762;2023-11-21T00:28:23;100776.59;;;8.81;88.73
9009;BME280;62813;51.424;6.762;2023-11-21T00:30:50;100773.94;;;8.76;88.93
9009;BME280;62813;51.424;6.762;2023-11-21T00:33:16;100781.81;;;8.76;89.20
9009;BME280;62813;51.424;6.762;2023-11-21T00:35:43;100779.66;;;8.73;89.15
9009;BME280;62813;51.424;6.762;2023-11-21T00:38:10;100781.81;;;8.76;89.65
9009;BME280;62813;51.424;6.762;2023-11-21T00:40:37;100779.19;;;8.76;89.12
9009;BME280;62813;51.424;6.762;2023-11-21T00:43:04;100773.16;;;8.81;89.17
9009;BME280;62813;51.424;6.762;2023-11-21T00:45:32;100782.09;;;8.80;88.98
9009;BME280;62813;51.424;6.762;2023-11-21T00:47:59;100778.66;;;8.79;88.77
9009;BME280;62813;51.424;6.762;2023-11-21T00:50:26;100783.38;;;8.77;88.28
9009;BME280;62813;51.424;6.762;2023-11-21T00:52:52;100781.03;;;8.76;88.71
9009;BME280;62813;51.424;6.762;2023-11-21T00:55:19;100776.56;;;8.76;88.63
9009;BME280;62813;51.424;6.762;2023-11-21T00:57:46;100773.88;;;8.71;88.32
9009;BME280;62813;51.424;6.762;2023-11-21T01:00:13;100778.88;;;8.72;87.84
9009;BME280;62813;51.424;6.762;2023-11-21T01:02:44;100778.22;;;8.60;86.88
9009;BME280;62813;51.424;6.762;2023-11-21T01:05:11;100782.75;;;8.65;88.02
9009;BME280;62813;51.424;6.762;2023-11-21T01:07:38;100788.22;;;8.63;87.45
9009;BME280;62813;51.424;6.762;2023-11-21T01:10:05;100788.72;;;8.60;87.35
9009;BME280;62813;51.424;6.762;2023-11-21T01:12:35;100794.53;;;8.62;87.30
9009;BME280;62813;51.424;6.762;2023-11-21T01:15:04;100791.09;;;8.62;86.67
9009;BME280;62813;51.424;6.762;2023-11-21T01:17:33;100801.56;;;8.57;86.43
9009;BME280;62813;51.424;6.762;2023-11-21T01:20:04;100800.34;;;8.64;87.60
9009;BME280;62813;51.424;6.762;2023-11-21T01:22:39;100805.72;;;8.53;87.44
9009;BME280;62813;51.424;6.762;2023-11-21T01:25:06;100800.22;;;8.54;86.83
9009;BME280;62813;51.424;6.762;2023-11-21T01:27:34;100806.03;;;8.56;87.47
9009;BME280;62813;51.424;6.762;2023-11-21T01:30:02;100808.09;;;8.54;87.58
9009;BME280;62813;51.424;6.762;2023-11-21T01:32:29;100811.41;;;8.66;87.99
9009;BME280;62813;51.424;6.762;2023-11-21T01:34:56;100807.53;;;8.74;88.36
9009;BME280;62813;51.424;6.762;2023-11-21T01:37:23;100803.88;;;8.75;87.68
9009;BME280;62813;51.424;6.762;2023-11-21T01:39:49;100807.81;;;8.78;87.77
9009;BME280;62813;51.424;6.762;2023-11-21T01:42:16;100818.59;;;8.76;87.82
9009;BME280;62813;51.424;6.762;2023-11-21T01:44:45;100812.00;;;8.73;87.32
9009;BME280;62813;51.424;6.762;2023-11-21T01:47:13;100818.09;;;8.79;87.38
9009;BME280;62813;51.424;6.762;2023-11-21T01:49:40;100815.91;;;8.71;86.85
9009;BME280;62813;51.424;6.762;2023-11-21T01:52:07;100824.34;;;8.73;87.82
9009;BME280;62813;51.424;6.762;2023-11-21T01:54:34;100818.53;;;8.71;86.79
9009;BME280;62813;51.424;6.762;2023-11-21T01:57:00;100822.56;;;8.57;87.31
9009;BME280;62813;51.424;6.762;2023-11-21T01:59:37;100820.31;;;8.65;88.39
9009;BME280;62813;51.424;6.762;2023-11-21T02:02:07;100826.59;;;8.64;87.62
9009;BME280;62813;51.424;6.762;2023-11-21T02:04:35;100839.31;;;8.72;87.86
9009;BME280;62813;51.424;6.762;2023-11-21T02:07:03;100830.63;;;8.72;87.80
9009;BME280;62813;51.424;6.762;2023-11-21T02:09:33;100821.94;;;8.71;87.36
9009;BME280;62813;51.424;6.762;2023-11-21T02:12:02;100825.38;;;8.72;87.54
9009;BME280;62813;51.424;6.762;2023-11-21T02:14:29;100832.75;;;8.75;87.38
9009;BME280;62813;51.424;6.762;2023-11-21T02:16:57;100836.66;;;8.72;86.71
9009;BME280;62813;51.424;6.762;2023-11-21T02:19:24;100836.91;;;8.71;87.71
9009;BME280;62813;51.424;6.762;2023-11-21T02:21:52;100836.91;;;8.71;88.32
9009;BME280;62813;51.424;6.762;2023-11-21T02:24:22;100836.66;;;8.72;87.70
9009;BME280;62813;51.424;6.762;2023-11-21T02:26:49;100839.66;;;8.81;87.83
9009;BME280;62813;51.424;6.762;2023-11-21T02:29:20;100846.00;;;8.85;87.78
9009;BME280;62813;51.424;6.762;2023-11-21T02:31:55;100844.72;;;8.88;87.79
9009;BME280;62813;51.424;6.762;2023-11-21T02:34:22;100848.94;;;8.89;87.62
9009;BME280;62813;51.424;6.762;2023-11-21T02:36:52;100844.72;;;8.88;87.04
9009;BME280;62813;51.424;6.762;2023-11-21T02:39:18;100847.91;;;8.90;87.48
9009;BME280;62813;51.424;6.762;2023-11-21T02:41:49;100856.81;;;8.89;87.48
9009;BME280;62813;51.424;6.762;2023-11-21T02:44:15;100848.94;;;8.89;87.46
9009;BME280;62813;51.424;6.762;2023-11-21T02:46:42;100854.66;;;8.86;87.16
9009;BME280;62813;51.424;6.762;2023-11-21T02:49:09;100850.28;;;8.91;87.63
9009;BME280;62813;51.424;6.762;2023-11-21T02:51:39;100842.88;;;8.88;87.45
9009;BME280;62813;51.424;6.762;2023-11-21T02:54:06;100849.16;;;8.87;86.98
9009;BME280;62813;51.424;6.762;2023-11-21T02:56:34;100849.41;;;8.86;87.53
9009;BME280;62813;51.424;6.762;2023-11-21T02:59:01;100845.03;;;8.91;87.64
9009;BME280;62813;51.424;6.762;2023-11-21T03:01:28;100851.56;;;8.89;87.61
9009;BME280;62813;51.424;6.762;2023-11-21T03:03:55;100854.75;;;8.91;87.76
9009;BME280;62813;51.424;6.762;2023-11-21T03:06:23;100852.66;;;8.93;87.74
9009;BME280;62813;51.424;6.762;2023-11-21T03:08:50;100862.13;;;8.94;87.63
9009;BME280;62813;51.424;6.762;2023-11-21T03:11:17;100857.84;;;8.88;87.65
9009;BME280;62813;51.424;6.762;2023-11-21T03:13:44;100871.31;;;8.91;87.94
9009;BME280;62813;51.424;6.762;2023-11-21T03:16:13;100865.00;;;8.92;88.05
9009;BME280;62813;51.424;6.762;2023-11-21T03:18:40;100863.19;;;8.93;87.93
9009;BME280;62813;51.424;6.762;2023-11-21T03:21:07;100872.38;;;8.95;88.00
9009;BME280;62813;51.424;6.762;2023-11-21T03:23:36;100864.50;;;8.95;87.94
9009;BME280;62813;51.424;6.762;2023-11-21T03:26:03;100871.59;;;8.95;88.20
9009;BME280;62813;51.424;6.762;2023-11-21T03:28:30;100867.13;;;8.95;87.87
9009;BME280;62813;51.424;6.762;2023-11-21T03:30:57;100879.53;;;9.00;88.74
9009;BME280;62813;51.424;6.762;2023-11-21T03:33:24;100881.66;;;9.03;88.60
9009;BME280;62813;51.424;6.762;2023-11-21T03:35:51;100884.56;;;9.01;88.67
9009;BME280;62813;51.424;6.762;2023-11-21T03:38:19;100884.28;;;9.03;88.72
9009;BME280;62813;51.424;6.762;2023-11-21T03:40:47;100895.34;;;9.05;88.87
9009;BME280;62813;51.424;6.762;2023-11-21T03:43:14;100891.38;;;9.02;89.02
9009;BME280;62813;51.424;6.762;2023-11-21T03:45:41;100888.50;;;9.04;88.63
9009;BME280;62813;51.424;6.762;2023-11-21T03:48:08;100889.84;;;9.06;89.06
9009;BME280;62813;51.424;6.762;2023-11-21T03:50:35;100897.19;;;9.04;88.68
9009;BME280;62813;51.424;6.762;2023-11-21T03:53:02;100903.56;;;9.08;88.55
9009;BME280;62813;51.424;6.762;2023-11-21T03:55:29;100912.25;;;9.09;88.79
9009;BME280;62813;51.424;6.762;2023-11-21T03:57:58;100907.47;;;9.06;89.09
9009;BME280;62813;51.424;6.762;2023-11-21T04:00:25;100907.22;;;9.07;89.02
9009;BME280;62813;51.424;6.762;2023-11-21T04:02:55;100907.47;;;9.06;88.89
9009;BME280;62813;51.424;6.762;2023-11-21T04:05:22;100919.25;;;9.03;89.31
9009;BME280;62813;51.424;6.762;2023-11-21T04:07:50;100919.00;;;9.05;89.10
9009;BME280;62813;51.424;6.762;2023-11-21T04:10:20;100921.16;;;9.08;89.35
9009;BME280;62813;51.424;6.762;2023-11-21T04:12:47;100912.47;;;9.07;89.11
9009;BME280;62813;51.424;6.762;2023-11-21T04:15:14;100918.22;;;9.04;89.18
9009;BME280;62813;51.424;6.762;2023-11-21T04:17:41;100920.44;;;8.91;89.21
9009;BME280;62813;51.424;6.762;2023-11-21T04:20:09;100915.47;;;8.94;89.70
9009;BME280;62813;51.424;6.762;2023-11-21T04:22:40;100917.03;;;8.90;89.55
9009;BME280;62813;51.424;6.762;2023-11-21T04:25:08;100917.31;;;8.94;89.51
9009;BME280;62813;51.424;6.762;2023-11-21T04:27:36;100921.25;;;8.91;89.16
9009;BME280;62813;51.424;6.762;2023-11-21T04:30:04;100923.31;;;8.89;89.84
9009;BME280;62813;51.424;6.762;2023-11-21T04:32:31;100920.63;;;8.84;88.80
9009;BME280;62813;51.424;6.762;2023-11-21T04:34:58;100929.91;;;8.92;89.86
9009;BME280;62813;51.424;6.762;2023-11-21T04:37:25;100930.63;;;8.87;89.18
9009;BME280;62813;51.424;6.762;2023-11-21T04:39:52;100921.47;;;8.90;89.43
9009;BME280;62813;51.424;6.762;2023-11-21T04:42:18;100929.38;;;8.90;89.34
9009;BME280;62813;51.424;6.762;2023-11-21T04:44:45;100925.69;;;8.91;89.74
9009;BME280;62813;51.424;6.762;2023-11-21T04:47:12;100928.09;;;8.92;89.64
9009;BME280;62813;51.424;6.762;2023-11-21T04:49:42;100940.97;;;8.94;89.45
9009;BME280;62813;51.424;6.762;2023-11-21T04:52:10;100931.25;;;8.94;89.15
9009;BME280;62813;51.424;6.762;2023-11-21T04:54:37;100946.78;;;8.96;89.13
9009;BME280;62813;51.424;6.762;2023-11-21T04:57:03;100945.50;;;8.98;89.30
9009;BME280;62813;51.424;6.762;2023-11-21T04:59:31;100947.00;;;8.94;89.25
9009;BME280;62813;51.424;6.762;2023-11-21T05:01:58;100955.41;;;8.91;88.77
9009;BME280;62813;51.424;6.762;2023-11-21T05:04:26;100958.56;;;8.93;89.18
9009;BME280;62813;51.424;6.762;2023-11-21T05:06:53;100958.31;;;8.95;89.36
9009;BME280;62813;51.424;6.762;2023-11-21T05:09:20;100952.28;;;8.94;88.53
9009;BME280;62813;51.424;6.762;2023-11-21T05:11:48;100953.06;;;8.95;88.66
9009;BME280;62813;51.424;6.762;2023-11-21T05:14:15;100960.94;;;8.95;88.88
9009;BME280;62813;51.424;6.762;2023-11-21T05:16:42;100960.66;;;8.91;89.64
9009;BME280;62813;51.424;6.762;2023-11-21T05:19:09;100959.63;;;8.92;89.89
9009;BME280;62813;51.424;6.762;2023-11-21T05:21:35;100964.38;;;8.95;89.46
9009;BME280;62813;51.424;6.762;2023-11-21T05:24:03;100962.53;;;8.96;89.57
9009;BME280;62813;51.424;6.762;2023-11-21T05:26:29;100977.75;;;8.94;89.90
9009;BME280;62813;51.424;6.762;2023-11-21T05:28:56;100975.13;;;8.94;90.00
9009;BME280;62813;51.424;6.762;2023-11-21T05:31:23;100980.88;;;8.91;89.74
9009;BME280;62813;51.424;6.762;2023-11-21T05:33:50;100985.97;;;8.97;90.08
9009;BME280;62813;51.424;6.762;2023-11-21T05:36:16;100985.41;;;8.95;89.53
9009;BME280;62813;51.424;6.762;2023-11-21T05:38:43;100995.69;;;8.97;89.84
9009;BME280;62813;51.424;6.762;2023-11-21T05:41:10;100989.16;;;8.99;89.42
9009;BME280;62813;51.424;6.762;2023-11-21T05:43:40;100998.53;;;8.95;89.79
9009;BME280;62813;51.424;6.762;2023-11-21T05:46:07;101010.88;;;8.95;89.80
9009;BME280;62813;51.424;6.762;2023-11-21T05:48:35;101005.09;;;8.93;89.57
9009;BME280;62813;51.424;6.762;2023-11-21T05:51:06;101012.66;;;8.89;90.38
9009;BME280;62813;51.424;6.762;2023-11-21T05:53:33;101008.69;;;8.87;90.50
9009;BME280;62813;51.424;6.762;2023-11-21T05:56:03;101011.53;;;8.85;90.55
9009;BME280;62813;51.424;6.762;2023-11-21T05:58:30;101010.75;;;8.85;90.54
9009;BME280;62813;51.424;6.762;2023-11-21T06:00:57;101021.59;;;8.88;90.65
9009;BME280;62813;51.424;6.762;2023-11-21T06:03:24;101024.03;;;8.95;90.48
9009;BME280;62813;51.424;6.762;2023-11-21T06:05:51;101019.50;;;8.90;90.30
9009;BME280;62813;51.424;6.762;2023-11-21T06:08:18;101029.00;;;8.91;90.67
9009;BME280;62813;51.424;6.762;2023-11-21T06:10:45;101026.75;;;9.00;90.42
9009;BME280;62813;51.424;6.762;2023-11-21T06:13:16;101034.13;;;9.03;90.44
9009;BME280;62813;51.424;6.762;2023-11-21T06:15:42;101041.22;;;9.02;90.46
9009;BME280;62813;51.424;6.762;2023-11-21T06:18:09;101036.38;;;8.94;90.36
9009;BME280;62813;51.424;6.762;2023-11-21T06:20:40;101042.19;;;8.96;90.47
9009;BME280;62813;51.424;6.762;2023-11-21T06:23:07;101040.13;;;8.98;90.24
9009;BME280;62813;51.424;6.762;2023-11-21T06:25:35;101053.97;;;8.94;90.68
9009;BME280;62813;51.424;6.762;2023-11-21T06:28:03;101057.66;;;8.93;91.12
9009;BME280;62813;51.424;6.762;2023-11-21T06:30:30;101061.56;;;8.90;90.87
9009;BME280;62813;51.424;6.762;2023-11-21T06:32:57;101066.66;;;8.97;91.33
9009;BME280;62813;51.424;6.762;2023-11-21T06:35:24;101069.84;;;8.99;90.80
9009;BME280;62813;51.424;6.762;2023-11-21T06:37:51;101062.50;;;9.01;91.59
9009;BME280;62813;51.424;6.762;2023-11-21T06:40:19;101072.34;;;9.10;90.99
9009;BME280;62813;51.424;6.762;2023-11-21T06:42:47;101072.03;;;9.07;91.01
9009;BME280;62813;51.424;6.762;2023-11-21T06:45:15;101081.28;;;9.09;90.76
9009;BME280;62813;51.424;6.762;2023-11-21T06:47:42;101089.81;;;9.00;91.44
9009;BME280;62813;51.424;6.762;2023-11-21T06:50:09;101086.31;;;8.94;90.58
9009;BME280;62813;51.424;6.762;2023-11-21T06:52:36;101086.06;;;8.96;91.95
9009;BME280;62813;51.424;6.762;2023-11-21T06:55:04;101095.00;;;8.95;91.94
9009;BME280;62813;51.424;6.762;2023-11-21T06:57:31;101095.22;;;8.93;91.71
9009;BME280;62813;51.424;6.762;2023-11-21T06:59:58;101100.56;;;8.98;91.49
9009;BME280;62813;51.424;6.762;2023-11-21T07:02:26;101108.47;;;8.98;91.88
9009;BME280;62813;51.424;6.762;2023-11-21T07:04:53;101118.34;;;8.91;92.08
9009;BME280;62813;51.424;6.762;2023-11-21T07:07:20;101122.56;;;8.92;92.13
9009;BME280;62813;51.424;6.762;2023-11-21T07:09:50;101115.31;;;8.99;91.31
9009;BME280;62813;51.424;6.762;2023-11-21T07:12:20;101116.81;;;8.95;91.68
9009;BME280;62813;51.424;6.762;2023-11-21T07:14:50;101119.16;;;8.92;92.09
9009;BME280;62813;51.424;6.762;2023-11-21T07:17:16;101134.91;;;8.92;91.95
9009;BME280;62813;51.424;6.762;2023-11-21T07:19:43;101128.88;;;8.91;92.23
9009;BME280;62813;51.424;6.762;2023-11-21T07:22:10;101132.81;;;8.94;92.10
9009;BME280;62813;51.424;6.762;2023-11-21T07:24:37;101124.69;;;8.95;92.13
9009;BME280;62813;51.424;6.762;2023-11-21T07:27:04;101126.88;;;8.98;91.98
9009;BME280;62813;51.424;6.762;2023-11-21T07:29:31;101129.78;;;9.02;91.65
9009;BME280;62813;51.424;6.762;2023-11-21T07:31:57;101124.00;;;9.00;91.51
9009;BME280;62813;51.424;6.762;2023-11-21T07:34:25;101129.03;;;9.01;91.35
9009;BME280;62813;51.424;6.762;2023-11-21T07:36:52;101131.38;;;9.03;91.49
9009;BME280;62813;51.424;6.762;2023-11-21T07:39:18;101129.31;;;9.05;91.80
9009;BME280;62813;51.424;6.762;2023-11-21T07:41:45;101141.19;;;9.07;92.01
9009;BME280;62813;51.424;6.762;2023-11-21T07:44:18;101144.53;;;9.03;91.52
9009;BME280;62813;51.424;6.762;2023-11-21T07:46:47;101143.50;;;9.04;92.49
9009;BME280;62813;51.424;6.762;2023-11-21T07:49:14;101148.84;;;9.09;92.35
9009;BME280;62813;51.424;6.762;2023-11-21T07:51:47;101159.09;;;9.10;91.57
9009;BME280;62813;51.424;6.762;2023-11-21T07:54:14;101159.41;;;9.14;91.56
9009;BME280;62813;51.424;6.762;2023-11-21T07:56:40;101163.09;;;9.13;91.97
9009;BME280;62813;51.424;6.762;2023-11-21T07:59:07;101168.09;;;9.15;91.93
9009;BME280;62813;51.424;6.762;2023-11-21T08:01:34;101166.50;;;9.14;91.94
9009;BME280;62813;51.424;6.762;2023-11-21T08:04:01;101168.81;;;9.27;91.31
9009;BME280;62813;51.424;6.762;2023-11-21T08:06:31;101174.31;;;9.25;90.82
9009;BME280;62813;51.424;6.762;2023-11-21T08:08:58;101183.81;;;9.26;90.51
9009;BME280;62813;51.424;6.762;2023-11-21T08:11:25;101191.44;;;9.28;91.28
9009;BME280;62813;51.424;6.762;2023-11-21T08:13:55;101198.53;;;9.27;91.64
9009;BME280;62813;51.424;6.762;2023-11-21T08:16:23;101193.81;;;9.29;91.70
9009;BME280;62813;51.424;6.762;2023-11-21T08:18:52;101205.63;;;9.27;91.77
9009;BME280;62813;51.424;6.762;2023-11-21T08:21:19;101214.84;;;9.29;91.06
9009;BME280;62813;51.424;6.762;2023-11-21T08:23:46;101221.25;;;9.33;90.91
9009;BME280;62813;51.424;6.762;2023-11-21T08:26:16;101223.16;;;9.21;90.58
9009;BME280;62813;51.424;6.762;2023-11-21T08:28:42;101216.88;;;9.22;91.84
9009;BME280;62813;51.424;6.762;2023-11-21T08:31:09;101225.94;;;9.15;92.31
9009;BME280;62813;51.424;6.762;2023-11-21T08:33:38;101231.28;;;9.20;92.28
9009;BME280;62813;51.424;6.762;2023-11-21T08:36:09;101225.31;;;9.24;93.00
9009;BME280;62813;51.424;6.762;2023-11-21T08:38:37;101230.00;;;9.22;92.19
9009;BME280;62813;51.424;6.762;2023-11-21T08:41:05;101229.44;;;9.20;91.87
9009;BME280;62813;51.424;6.762;2023-11-21T08:43:35;101231.03;;;9.21;92.22
9009;BME280;62813;51.424;6.762;2023-11-21T08:46:02;101226.28;;;9.18;92.44
9009;BME280;62813;51.424;6.762;2023-11-21T08:48:29;101231.28;;;9.20;92.34
9009;BME280;62813;51.424;6.762;2023-11-21T08:50:56;101231.44;;;9.13;92.60
9009;BME280;62813;51.424;6.762;2023-11-21T08:53:23;101239.25;;;9.25;92.77
9009;BME280;62813;51.424;6.762;2023-11-21T08:55:49;101245.16;;;9.32;92.64
9009;BME280;62813;51.424;6.762;2023-11-21T08:58:17;101248.63;;;9.37;92.38
9009;BME280;62813;51.424;6.762;2023-11-21T09:00:43;101251.78;;;9.34;91.70
9009;BME280;62813;51.424;6.762;2023-11-21T09:03:13;101261.97;;;9.31;91.16
9009;BME280;62813;51.424;6.762;2023-11-21T09:05:40;101261.72;;;9.32;91.50
9009;BME280;62813;51.424;6.762;2023-11-21T09:08:06;101269.63;;;9.32;91.36
9009;BME280;62813;51.424;6.762;2023-11-21T09:10:34;101273.34;;;9.36;91.50
9009;BME280;62813;51.424;6.762;2023-11-21T09:13:03;101278.38;;;9.38;91.59
9009;BME280;62813;51.424;6.762;2023-11-21T09:15:32;101275.03;;;9.42;91.46
9009;BME280;62813;51.424;6.762;2023-11-21T09:17:59;101281.16;;;9.48;91.26
9009;BME280;62813;51.424;6.762;2023-11-21T09:20:27;101283.78;;;9.48;91.09
9009;BME280;62813;51.424;6.762;2023-11-21T09:22:55;101288.59;;;9.51;91.33
9009;BME280;62813;51.424;6.762;2023-11-21T09:25:22;101285.41;;;9.49;91.17
9009;BME280;62813;51.424;6.762;2023-11-21T09:27:49;101286.75;;;9.52;91.12
9009;BME280;62813;51.424;6.762;2023-11-21T09:30:16;101290.47;;;9.56;91.03
9009;BME280;62813;51.424;6.762;2023-11-21T09:32:43;101292.88;;;9.57;89.98
9009;BME280;62813;51.424;6.762;2023-11-21T09:35:12;101299.97;;;9.57;90.47
9009;BME280;62813;51.424;6.762;2023-11-21T09:37:41;101299.13;;;9.51;90.16
9009;BME280;62813;51.424;6.762;2023-11-21T09:40:10;101302.28;;;9.53;90.46
9009;BME280;62813;51.424;6.762;2023-11-21T09:42:43;101308.66;;;9.40;90.07
9009;BME280;62813;51.424;6.762;2023-11-21T09:45:31;101300.53;;;9.42;90.31
9009;BME280;62813;51.424;6.762;2023-11-21T09:48:01;101306.91;;;9.46;90.74
9009;BME280;62813;51.424;6.762;2023-11-21T09:50:28;101307.81;;;9.35;89.92
9009;BME280;62813;51.424;6.762;2023-11-21T09:53:00;101316.16;;;9.32;90.77
9009;BME280;62813;51.424;6.762;2023-11-21T09:55:34;101311.47;;;9.34;90.92
9009;BME280;62813;51.424;6.762;2023-11-21T09:58:03;101319.13;;;9.35;90.96
9009;BME280;62813;51.424;6.762;2023-11-21T10:00:32;101318.06;;;9.36;90.59
9009;BME280;62813;51.424;6.762;2023-11-21T10:02:59;101323.09;;;9.38;90.47
9009;BME280;62813;51.424;6.762;2023-11-21T10:05:26;101322.63;;;9.41;90.49
9009;BME280;62813;51.424;6.762;2023-11-21T10:07:55;101323.31;;;9.36;90.83
9009;BME280;62813;51.424;6.762;2023-11-21T10:10:24;101319.66;;;9.37;90.93
9009;BME280;62813;51.424;6.762;2023-11-21T10:12:55;101321.19;;;9.50;91.22
9009;BME280;62813;51.424;6.762;2023-11-21T10:15:23;101316.63;;;9.62;90.34
9009;BME280;62813;51.424;6.762;2023-11-21T10:17:55;101327.53;;;9.71;90.88
9009;BME280;62813;51.424;6.762;2023-11-21T10:20:23;101330.84;;;9.78;90.29
9009;BME280;62813;51.424;6.762;2023-11-21T10:22:50;101330.66;;;9.84;90.24
9009;BME280;62813;51.424;6.762;2023-11-21T10:25:17;101338.31;;;9.86;89.92
9009;BME280;62813;51.424;6.762;2023-11-21T10:27:48;101339.03;;;9.81;89.66
9009;BME280;62813;51.424;6.762;2023-11-21T10:30:18;101339.50;;;9.62;90.00
9009;BME280;62813;51.424;6.762;2023-11-21T10:32:45;101338.34;;;9.69;90.30
9009;BME280;62813;51.424;6.762;2023-11-21T10:35:13;101335.38;;;9.66;90.07
9009;BME280;62813;51.424;6.762;2023-11-21T10:37:40;101330.91;;;9.66;89.96
9009;BME280;62813;51.424;6.762;2023-11-21T10:40:08;101345.81;;;9.77;90.22
9009;BME280;62813;51.424;6.762;2023-11-21T10:42:39;101347.50;;;9.83;89.75
9009;BME280;62813;51.424;6.762;2023-11-21T10:45:08;101348.13;;;9.91;89.90
9009;BME280;62813;51.424;6.762;2023-11-21T10:47:44;101347.56;;;9.88;89.31
9009;BME280;62813;51.424;6.762;2023-11-21T10:50:11;101349.53;;;9.98;89.18
9009;BME280;62813;51.424;6.762;2023-11-21T10:52:41;101354.63;;;10.05;89.08
9009;BME280;62813;51.424;6.762;2023-11-21T10:55:17;101359.41;;;10.08;88.90
9009;BME280;62813;51.424;6.762;2023-11-21T10:57:48;101355.28;;;10.12;89.23
9009;BME280;62813;51.424;6.762;2023-11-21T11:00:16;101354.31;;;10.18;88.41
9009;BME280;62813;51.424;6.762;2023-11-21T11:02:47;101353.16;;;10.31;88.93
9009;BME280;62813;51.424;6.762;2023-11-21T11:05:19;101359.31;;;10.36;87.82
9009;BME280;62813;51.424;6.762;2023-11-21T11:08:05;101361.28;;;10.46;88.40
9009;BME280;62813;51.424;6.762;2023-11-21T11:10:32;101366.97;;;10.38;87.25
9009;BME280;62813;51.424;6.762;2023-11-21T11:12:59;101368.31;;;10.40;86.92
9009;BME280;62813;51.424;6.762;2023-11-21T11:15:27;101366.78;;;10.44;87.22
9009;BME280;62813;51.424;6.762;2023-11-21T11:17:54;101364.41;;;10.43;86.14
9009;BME280;62813;51.424;6.762;2023-11-21T11:20:33;101364.88;;;10.40;86.55
9009;BME280;62813;51.424;6.762;2023-11-21T11:28:47;101365.03;;;9.95;87.28
9009;BME280;62813;51.424;6.762;2023-11-21T11:31:27;101375.25;;;9.91;88.21
9009;BME280;62813;51.424;6.762;2023-11-21T11:34:30;101375.72;;;9.88;87.48
9009;BME280;62813;51.424;6.762;2023-11-21T11:37:02;101380.09;;;9.82;88.09
9009;BME280;62813;51.424;6.762;2023-11-21T11:39:36;101384.25;;;9.78;88.09
9009;BME280;62813;51.424;6.762;2023-11-21T11:42:07;101391.44;;;9.66;89.19
9009;BME280;62813;51.424;6.762;2023-11-21T11:52:49;101397.00;;;9.70;89.71
9009;BME280;62813;51.424;6.762;2023-11-21T11:55:18;101394.78;;;9.78;89.65
9009;BME280;62813;51.424;6.762;2023-11-21T11:57:47;101389.28;;;9.80;88.91
9009;BME280;62813;51.424;6.762;2023-11-21T12:02:48;101398.84;;;10.03;89.11
9009;BME280;62813;51.424;6.762;2023-11-21T12:05:19;101392.44;;;10.15;89.20
9009;BME280;62813;51.424;6.762;2023-11-21T12:07:48;101393.09;;;10.22;88.90
9009;BME280;62813;51.424;6.762;2023-11-21T12:10:18;101392.84;;;10.24;87.95
9009;BME280;62813;51.424;6.762;2023-11-21T12:12:49;101390.53;;;10.11;88.96
9009;BME280;62813;51.424;6.762;2023-11-21T12:15:16;101382.50;;;10.17;87.72
9009;BME280;62813;51.424;6.762;2023-11-21T12:17:44;101390.97;;;10.19;88.03
9009;BME280;62813;51.424;6.762;2023-11-21T12:20:14;101383.59;;;10.21;88.13
9009;BME280;62813;51.424;6.762;2023-11-21T12:22:46;101385.56;;;10.31;87.82
9009;BME280;62813;51.424;6.762;2023-11-21T12:25:21;101391.59;;;10.27;88.09
9009;BME280;62813;51.424;6.762;2023-11-21T12:27:50;101395.44;;;10.19;88.29
9009;BME280;62813;51.424;6.762;2023-11-21T12:30:19;101412.84;;;10.20;87.93
9009;BME280;62813;51.424;6.762;2023-11-21T12:32:49;101414.66;;;10.19;88.23
9009;BME280;62813;51.424;6.762;2023-11-21T12:35:17;101419.56;;;10.16;88.79
9009;BME280;62813;51.424;6.762;2023-11-21T12:37:46;101414.91;;;10.18;88.42
9009;BME280;62813;51.424;6.762;2023-11-21T12:40:15;101432.03;;;10.04;88.30
9009;BME280;62813;51.424;6.762;2023-11-21T12:42:43;101430.91;;;10.00;88.26
9009;BME280;62813;51.424;6.762;2023-11-21T12:47:44;101429.66;;;9.69;90.31
9009;BME280;62813;51.424;6.762;2023-11-21T12:50:12;101439.69;;;9.72;90.40
9009;BME280;62813;51.424;6.762;2023-11-21T12:52:45;101434.75;;;9.75;90.43
9009;BME280;62813;51.424;6.762;2023-11-21T12:55:18;101438.41;;;9.74;90.62
9009;BME280;62813;51.424;6.762;2023-11-21T12:57:48;101442.72;;;9.80;90.18
9009;BME280;62813;51.424;6.762;2023-11-21T13:00:18;101444.72;;;9.73;90.07
9009;BME280;62813;51.424;6.762;2023-11-21T13:02:55;101442.69;;;9.64;90.80
9009;BME280;62813;51.424;6.762;2023-11-21T13:05:36;101450.94;;;9.67;91.12
9009;BME280;62813;51.424;6.762;2023-11-21T13:08:09;101446.78;;;9.71;90.50
9009;BME280;62813;51.424;6.762;2023-11-21T13:10:40;101453.75;;;9.77;90.87
9009;BME280;62813;51.424;6.762;2023-11-21T13:13:11;101461.94;;;9.81;90.05
9009;BME280;62813;51.424;6.762;2023-11-21T13:15:54;101458.25;;;9.65;90.75
9009;BME280;62813;51.424;6.762;2023-11-21T13:18:25;101461.22;;;9.69;91.12
9009;BME280;62813;51.424;6.762;2023-11-21T13:20:54;101463.84;;;9.69;91.34
9009;BME280;62813;51.424;6.762;2023-11-21T13:23:22;101459.94;;;9.71;91.61
9009;BME280;62813;51.424;6.762;2023-11-21T13:25:50;101463.59;;;9.70;91.85
9009;BME280;62813;51.424;6.762;2023-11-21T13:28:28;101468.63;;;9.72;92.05
9009;BME280;62813;51.424;6.762;2023-11-21T13:30:59;101470.38;;;9.66;92.07
9009;BME280;62813;51.424;6.762;2023-11-21T13:33:37;101476.13;;;9.63;92.44
9009;BME280;62813;51.424;6.762;2023-11-21T13:36:06;101475.53;;;9.61;92.44